createdAt,value
2024-03-05T00:01:38.493Z,61.24
2024-03-05T00:04:06.988Z,61.22
2024-03-05T00:06:34.637Z,60.93
2024-03-05T00:09:02.192Z,61.25
2024-03-05T00:11:30.165Z,61.59
2024-03-05T00:13:59.117Z,61.59
2024-03-05T00:16:28.671Z,61.68
2024-03-05T00:19:00.612Z,61.06
2024-03-05T00:21:28.466Z,61.24
2024-03-05T00:23:56.161Z,61.70
2024-03-05T00:26:26.698Z,62.14
2024-03-05T00:28:57.336Z,62.14
2024-03-05T00:31:25.863Z,62.06
2024-03-05T00:33:53.354Z,61.98
2024-03-05T00:36:21.931Z,61.79
2024-03-05T00:38:49.659Z,62.03
2024-03-05T00:41:19.427Z,61.64
2024-03-05T00:43:47.313Z,62.41
2024-03-05T00:46:15.440Z,61.50
2024-03-05T00:48:43.377Z,62.21
2024-03-05T00:51:11.272Z,61.92
2024-03-05T00:53:39.506Z,62.54
2024-03-05T00:56:07.510Z,62.40
2024-03-05T00:58:35.190Z,62.21
2024-03-05T01:01:04.976Z,62.00
2024-03-05T01:03:33.254Z,62.66
2024-03-05T01:06:01.224Z,62.32
2024-03-05T01:08:29.403Z,61.71
2024-03-05T01:10:57.405Z,62.07
2024-03-05T01:13:25.137Z,62.58
2024-03-05T01:15:53.058Z,62.44
2024-03-05T01:18:21.691Z,60.88
2024-03-05T01:20:49.660Z,60.21
2024-03-05T01:23:18.403Z,62.09
2024-03-05T01:25:45.950Z,62.19
2024-03-05T01:28:16.248Z,62.11
2024-03-05T01:30:44.793Z,62.07
2024-03-05T01:33:20.994Z,62.22
2024-03-05T01:35:49.524Z,62.86
2024-03-05T01:38:17.646Z,62.79
2024-03-05T01:40:45.998Z,62.31
2024-03-05T01:43:13.934Z,61.82
2024-03-05T01:45:44.102Z,62.56
2024-03-05T01:48:13.141Z,62.59
2024-03-05T01:50:41.518Z,62.14
2024-03-05T01:53:12.001Z,62.81
2024-03-05T01:55:40.522Z,62.27
2024-03-05T01:58:10.311Z,62.28
2024-03-05T02:00:38.125Z,62.13
2024-03-05T02:03:06.336Z,62.68
2024-03-05T02:05:34.524Z,62.55
2024-03-05T02:08:04.279Z,62.65
2024-03-05T02:10:32.476Z,62.98
2024-03-05T02:13:00.060Z,62.95
2024-03-05T02:15:27.661Z,63.23
2024-03-05T02:17:55.610Z,62.61
2024-03-05T02:20:23.835Z,62.28
2024-03-05T02:22:51.486Z,62.41
2024-03-05T02:25:21.788Z,62.04
2024-03-05T02:27:50.760Z,61.93
2024-03-05T02:30:19.094Z,61.96
2024-03-05T02:32:47.481Z,61.84
2024-03-05T02:35:15.189Z,61.89
2024-03-05T02:37:43.902Z,61.89
2024-03-05T02:40:14.911Z,62.12
2024-03-05T02:42:43.973Z,61.78
2024-03-05T02:45:14.476Z,61.60
2024-03-05T02:47:42.437Z,61.63
2024-03-05T02:50:12.000Z,61.48
2024-03-05T02:52:40.477Z,62.01
2024-03-05T02:55:12.091Z,62.14
2024-03-05T02:57:42.460Z,62.27
2024-03-05T03:00:11.653Z,62.17
2024-03-05T03:02:39.740Z,62.54
2024-03-05T03:05:08.022Z,62.49
2024-03-05T03:07:36.848Z,62.89
2024-03-05T03:10:06.608Z,62.90
2024-03-05T03:12:34.129Z,61.84
2024-03-05T03:15:01.606Z,62.23
2024-03-05T03:17:32.112Z,62.36
2024-03-05T03:20:00.792Z,62.55
2024-03-05T03:22:29.842Z,63.23
2024-03-05T03:24:59.535Z,63.58
2024-03-05T03:27:26.991Z,62.84
2024-03-05T03:29:54.849Z,62.71
2024-03-05T03:32:22.411Z,62.93
2024-03-05T03:34:50.011Z,63.17
2024-03-05T03:37:18.074Z,61.92
2024-03-05T03:39:47.670Z,61.98
2024-03-05T03:42:15.990Z,62.46
2024-03-05T03:44:43.848Z,62.74
2024-03-05T03:47:11.407Z,62.88
2024-03-05T03:49:39.093Z,63.84
2024-03-05T03:52:07.086Z,63.92
2024-03-05T03:54:35.679Z,63.58
2024-03-05T03:57:03.638Z,63.70
2024-03-05T03:59:31.517Z,63.57
2024-03-05T04:01:59.134Z,63.02
2024-03-05T04:04:27.090Z,63.39
2024-03-05T04:06:54.829Z,62.62
2024-03-05T04:09:22.468Z,63.41
2024-03-05T04:11:50.533Z,63.53
2024-03-05T04:14:18.129Z,63.96
2024-03-05T04:16:45.984Z,64.02
2024-03-05T04:19:14.058Z,63.27
2024-03-05T04:21:43.491Z,63.30
2024-03-05T04:24:15.059Z,63.37
2024-03-05T04:26:43.851Z,63.45
2024-03-05T04:29:17.898Z,61.54
2024-03-05T04:31:56.334Z,61.55
2024-03-05T04:34:24.287Z,62.78
2024-03-05T04:36:55.610Z,62.87
2024-03-05T04:39:25.037Z,63.50
2024-03-05T04:41:52.886Z,63.09
2024-03-05T04:44:20.640Z,63.37
2024-03-05T04:46:48.195Z,63.66
2024-03-05T04:49:16.340Z,63.49
2024-03-05T04:51:44.028Z,63.77
2024-03-05T04:54:12.358Z,63.42
2024-03-05T04:56:40.867Z,63.83
2024-03-05T04:59:08.646Z,63.48
2024-03-05T05:01:36.438Z,63.77
2024-03-05T05:04:04.350Z,63.71
2024-03-05T05:06:33.553Z,63.94
2024-03-05T05:09:01.436Z,63.74
2024-03-05T05:11:29.455Z,63.32
2024-03-05T05:13:57.098Z,63.78
2024-03-05T05:16:25.649Z,63.61
2024-03-05T05:18:53.972Z,63.41
2024-03-05T05:21:21.738Z,63.28
2024-03-05T05:23:49.748Z,63.00
2024-03-05T05:26:17.798Z,63.41
2024-03-05T05:28:45.423Z,63.72
2024-03-05T05:31:25.661Z,63.36
2024-03-05T05:33:54.622Z,63.52
2024-03-05T05:36:22.421Z,63.51
2024-03-05T05:38:51.651Z,64.29
2024-03-05T05:41:19.836Z,64.04
2024-03-05T05:43:47.615Z,63.72
2024-03-05T05:46:16.154Z,64.08
2024-03-05T05:48:44.481Z,64.05
2024-03-05T05:51:11.939Z,64.15
2024-03-05T05:53:39.905Z,64.24
2024-03-05T05:56:08.167Z,64.58
2024-03-05T05:58:36.920Z,63.05
2024-03-05T06:01:10.981Z,63.74
2024-03-05T06:03:38.897Z,63.84
2024-03-05T06:06:07.931Z,64.64
2024-03-05T06:08:36.443Z,64.66
2024-03-05T06:11:04.531Z,64.63
2024-03-05T06:13:32.080Z,65.07
2024-03-05T06:15:59.741Z,65.43
2024-03-05T06:18:29.712Z,65.47
2024-03-05T06:20:58.338Z,65.01
2024-03-05T06:23:25.815Z,64.93
2024-03-05T06:25:54.112Z,64.76
2024-03-05T06:28:21.626Z,64.78
2024-03-05T06:30:52.493Z,64.14
2024-03-05T06:33:20.451Z,63.74
2024-03-05T06:35:49.339Z,63.58
2024-03-05T06:38:16.942Z,63.05
2024-03-05T06:40:44.820Z,62.71
2024-03-05T06:43:21.984Z,62.36
2024-03-05T06:45:51.043Z,61.89
2024-03-05T06:48:24.714Z,61.67
2024-03-05T06:50:58.826Z,61.05
2024-03-05T06:53:45.195Z,60.77
2024-03-05T06:56:32.476Z,61.12
2024-03-05T06:59:01.230Z,60.17
2024-03-05T07:01:29.473Z,60.02
2024-03-05T07:03:57.908Z,60.65
2024-03-05T07:06:25.413Z,60.92
2024-03-05T07:08:56.247Z,60.05
2024-03-05T07:11:27.185Z,60.19
2024-03-05T07:13:56.981Z,59.47
2024-03-05T07:16:25.715Z,59.59
2024-03-05T07:18:57.009Z,59.89
2024-03-05T07:21:26.051Z,59.33
2024-03-05T07:23:55.235Z,58.51
2024-03-05T07:26:24.729Z,58.88
2024-03-05T07:28:53.662Z,58.66
2024-03-05T07:31:21.276Z,58.72
2024-03-05T07:33:52.793Z,58.68
2024-03-05T07:36:22.521Z,59.14
2024-03-05T07:38:50.171Z,59.00
2024-03-05T07:41:29.211Z,58.80
2024-03-05T07:44:04.216Z,58.88
2024-03-05T07:46:34.079Z,58.35
2024-03-05T07:49:02.364Z,58.53
2024-03-05T07:51:40.746Z,58.25
2024-03-05T07:54:12.697Z,59.08
2024-03-05T07:56:41.763Z,58.76
2024-03-05T07:59:10.221Z,58.75
2024-03-05T08:01:38.934Z,58.59
2024-03-05T08:04:07.137Z,58.63
2024-03-05T08:06:34.899Z,58.03
2024-03-05T08:09:03.578Z,57.47
2024-03-05T08:11:31.462Z,57.58
2024-03-05T08:13:59.244Z,57.52
2024-03-05T08:16:27.787Z,57.92
2024-03-05T08:18:56.781Z,57.46
2024-03-05T08:21:24.728Z,57.72
2024-03-05T08:23:55.054Z,58.07
2024-03-05T08:26:23.913Z,58.51
2024-03-05T08:28:51.791Z,58.36
2024-03-05T08:31:19.475Z,58.32
2024-03-05T08:33:48.312Z,58.65
2024-03-05T08:36:16.317Z,58.07
2024-03-05T08:38:46.198Z,57.59
2024-03-05T08:41:13.932Z,57.11
2024-03-05T08:43:41.797Z,57.05
2024-03-05T08:46:09.685Z,56.50
2024-03-05T08:48:37.777Z,55.85
2024-03-05T08:51:05.454Z,56.12
2024-03-05T08:53:36.591Z,55.45
2024-03-05T08:56:04.880Z,54.99
2024-03-05T08:58:32.413Z,54.28
2024-03-05T09:01:00.136Z,54.38
2024-03-05T09:03:28.015Z,53.65
2024-03-05T09:05:55.628Z,53.36
2024-03-05T09:08:23.169Z,52.67
2024-03-05T09:10:51.195Z,52.95
2024-03-05T09:13:18.741Z,52.29
2024-03-05T09:15:46.377Z,52.54
2024-03-05T09:18:15.914Z,51.22
2024-03-05T09:20:44.562Z,51.35
2024-03-05T09:23:12.631Z,51.61
2024-03-05T09:25:43.361Z,52.48
2024-03-05T09:28:12.386Z,51.84
2024-03-05T09:30:40.585Z,51.06
2024-03-05T09:33:12.105Z,51.07
2024-03-05T09:35:41.994Z,49.21
2024-03-05T09:38:10.329Z,48.79
2024-03-05T09:40:40.202Z,48.46
2024-03-05T09:43:08.852Z,47.90
2024-03-05T09:45:38.390Z,46.31
2024-03-05T09:48:06.627Z,46.71
2024-03-05T09:50:34.739Z,46.14
2024-03-05T09:53:03.380Z,45.82
2024-03-05T09:55:33.116Z,45.39
2024-03-05T09:58:03.970Z,46.52
2024-03-05T10:00:31.949Z,45.41
2024-03-05T10:03:00.113Z,45.06
2024-03-05T10:05:27.751Z,44.72
2024-03-05T10:07:55.767Z,44.38
2024-03-05T10:10:23.843Z,43.40
2024-03-05T10:12:51.697Z,43.46
2024-03-05T10:15:27.006Z,43.84
2024-03-05T10:17:56.812Z,45.47
2024-03-05T10:20:39.372Z,45.40
2024-03-05T10:23:09.182Z,44.82
2024-03-05T10:25:38.115Z,43.21
2024-03-05T10:28:07.495Z,43.69
2024-03-05T10:30:37.831Z,43.76
2024-03-05T10:33:09.113Z,42.72
2024-03-05T10:35:39.822Z,41.94
2024-03-05T10:38:11.579Z,41.87
2024-03-05T10:40:45.825Z,41.25
2024-03-05T10:43:20.317Z,41.38
2024-03-05T10:45:49.195Z,41.76
2024-03-05T10:48:20.002Z,41.28
2024-03-05T10:50:50.171Z,40.31
2024-03-05T10:53:18.388Z,40.68
2024-03-05T10:55:48.996Z,41.71
2024-03-05T10:58:38.262Z,39.81
2024-03-05T11:01:10.378Z,39.68
2024-03-05T11:03:39.604Z,39.28
2024-03-05T11:06:08.256Z,39.69
2024-03-05T11:08:37.602Z,38.65
2024-03-05T11:11:11.524Z,38.09
2024-03-05T11:13:40.851Z,38.50
2024-03-05T11:16:09.817Z,39.37
2024-03-05T11:18:39.156Z,39.25
2024-03-05T11:21:08.464Z,36.69
2024-03-05T11:23:42.906Z,35.72
2024-03-05T11:26:21.569Z,37.11
2024-03-05T11:28:50.184Z,38.73
2024-03-05T11:31:21.490Z,38.52
2024-03-05T11:34:03.681Z,39.61
2024-03-05T11:36:37.877Z,38.21
2024-03-05T11:39:16.728Z,39.57
2024-03-05T11:41:46.243Z,38.47
2024-03-05T11:44:15.857Z,39.05
2024-03-05T11:46:44.862Z,37.92
2024-03-05T11:49:16.532Z,39.55
2024-03-05T11:51:45.868Z,37.68
2024-03-05T11:54:15.382Z,37.56
2024-03-05T11:56:44.821Z,38.90
2024-03-05T11:59:13.761Z,38.86
2024-03-05T12:01:45.358Z,40.28
2024-03-05T12:04:14.546Z,39.38
2024-03-05T12:06:45.805Z,37.35
2024-03-05T12:09:22.170Z,38.03
2024-03-05T12:12:07.815Z,38.80
2024-03-05T12:14:37.735Z,39.04
2024-03-05T12:17:08.774Z,40.29
2024-03-05T12:19:41.514Z,38.78
2024-03-05T12:22:10.463Z,38.40
2024-03-05T12:24:40.123Z,39.96
2024-03-05T12:27:08.070Z,39.65
2024-03-05T12:29:41.261Z,37.92
2024-03-05T12:32:12.234Z,37.30
2024-03-05T12:34:48.470Z,38.13
2024-03-05T12:37:17.567Z,38.52
2024-03-05T12:39:45.439Z,37.59
2024-03-05T12:42:15.317Z,36.77
2024-03-05T12:44:44.137Z,37.56
2024-03-05T12:47:15.371Z,37.36
2024-03-05T12:49:48.235Z,37.67
2024-03-05T12:52:20.917Z,38.07
2024-03-05T12:55:06.127Z,36.06
2024-03-05T12:57:35.681Z,36.98
2024-03-05T13:00:16.951Z,35.72
2024-03-05T13:02:44.727Z,36.51
2024-03-05T13:05:13.424Z,36.59
2024-03-05T13:07:42.567Z,36.47
2024-03-05T13:10:12.969Z,35.47
2024-03-05T13:12:43.205Z,37.04
2024-03-05T13:15:11.127Z,37.62
2024-03-05T13:17:38.894Z,36.85
2024-03-05T13:20:20.036Z,36.61
2024-03-05T13:22:48.813Z,36.62
2024-03-05T13:25:16.838Z,36.40
2024-03-05T13:27:46.218Z,37.60
2024-03-05T13:30:17.911Z,37.08
2024-03-05T13:32:47.143Z,37.33
2024-03-05T13:35:16.099Z,37.98
2024-03-05T13:37:44.778Z,37.99
2024-03-05T13:40:13.372Z,37.45
2024-03-05T13:42:41.003Z,37.07
2024-03-05T13:45:13.504Z,35.82
2024-03-05T13:47:41.567Z,37.56
2024-03-05T13:50:11.866Z,36.80
2024-03-05T13:52:44.161Z,37.14
2024-03-05T13:55:13.570Z,36.07
2024-03-05T13:57:41.335Z,37.73
2024-03-05T14:00:10.960Z,37.49
2024-03-05T14:02:41.080Z,37.04
2024-03-05T14:05:12.520Z,38.49
2024-03-05T14:07:41.717Z,37.23
2024-03-05T14:10:11.665Z,37.34
2024-03-05T14:12:40.403Z,36.11
2024-03-05T14:15:22.655Z,37.17
2024-03-05T14:17:54.644Z,37.19
2024-03-05T14:20:25.190Z,38.68
2024-03-05T14:22:55.784Z,38.41
2024-03-05T14:25:24.096Z,37.79
2024-03-05T14:27:52.278Z,39.42
2024-03-05T14:30:21.013Z,41.09
2024-03-05T14:32:49.436Z,39.21
2024-03-05T14:35:17.863Z,39.56
2024-03-05T14:37:46.520Z,41.44
2024-03-05T14:40:17.225Z,41.15
2024-03-05T14:42:45.797Z,39.56
2024-03-05T14:45:17.491Z,40.30
2024-03-05T14:47:50.105Z,39.98
2024-03-05T14:50:19.328Z,41.47
2024-03-05T14:52:47.547Z,41.44
2024-03-05T14:55:15.295Z,40.57
2024-03-05T14:57:45.091Z,41.36
2024-03-05T15:00:17.365Z,42.03
2024-03-05T15:02:48.693Z,41.97
2024-03-05T15:05:17.385Z,41.77
2024-03-05T15:07:46.189Z,41.05
2024-03-05T15:10:17.397Z,40.69
2024-03-05T15:12:50.002Z,40.81
2024-03-05T15:15:18.632Z,41.64
2024-03-05T15:17:52.461Z,40.85
2024-03-05T15:20:20.577Z,42.53
2024-03-05T15:22:50.372Z,42.35
2024-03-05T15:25:21.569Z,43.08
2024-03-05T15:28:00.833Z,43.74
2024-03-05T15:30:34.794Z,43.77
2024-03-05T15:33:05.271Z,42.45
2024-03-05T15:35:33.838Z,41.75
2024-03-05T15:38:03.482Z,42.14
2024-03-05T15:40:34.883Z,43.39
2024-03-05T15:43:07.320Z,43.01
2024-03-05T15:45:39.673Z,42.91
2024-03-05T15:48:11.537Z,42.85
2024-03-05T15:50:43.487Z,43.76
2024-03-05T15:53:11.897Z,42.95
2024-03-05T15:55:44.074Z,43.41
2024-03-05T15:58:20.784Z,43.48
2024-03-05T16:00:52.243Z,44.67
2024-03-05T16:03:20.163Z,44.71
2024-03-05T16:05:56.401Z,45.35
2024-03-05T16:08:32.464Z,44.64
2024-03-05T16:11:01.038Z,44.71
2024-03-05T16:13:31.945Z,43.73
2024-03-05T16:16:00.244Z,45.01
2024-03-05T16:18:28.390Z,43.97
2024-03-05T16:20:56.123Z,44.66
2024-03-05T16:23:26.589Z,43.83
2024-03-05T16:25:54.539Z,44.25
2024-03-05T16:28:22.218Z,45.36
2024-03-05T16:30:50.760Z,45.18
2024-03-05T16:33:18.597Z,44.59
2024-03-05T16:35:48.037Z,44.83
2024-03-05T16:38:16.620Z,44.88
2024-03-05T16:40:44.559Z,45.61
2024-03-05T16:43:13.160Z,46.02
2024-03-05T16:45:41.875Z,45.84
2024-03-05T16:48:10.990Z,46.40
2024-03-05T16:50:42.281Z,46.70
2024-03-05T16:53:11.476Z,46.53
2024-03-05T16:55:40.625Z,47.41
2024-03-05T16:58:12.747Z,47.46
2024-03-05T17:00:53.793Z,46.83
2024-03-05T17:03:23.442Z,47.27
2024-03-05T17:05:55.517Z,47.01
2024-03-05T17:08:25.360Z,47.68
2024-03-05T17:10:55.274Z,47.44
2024-03-05T17:13:27.009Z,47.29
2024-03-05T17:16:04.826Z,47.79
2024-03-05T17:18:35.945Z,48.20
2024-03-05T17:21:05.936Z,48.58
2024-03-05T17:23:35.985Z,48.73
2024-03-05T17:26:04.270Z,48.10
2024-03-05T17:28:33.314Z,48.87
2024-03-05T17:31:01.038Z,48.53
2024-03-05T17:33:29.768Z,48.67
2024-03-05T17:35:58.662Z,48.81
2024-03-05T17:38:30.304Z,49.42
2024-03-05T17:41:02.272Z,50.03
2024-03-05T17:43:31.513Z,48.85
2024-03-05T17:46:00.582Z,49.53
2024-03-05T17:48:28.884Z,49.69
2024-03-05T17:50:56.865Z,50.26
2024-03-05T17:53:24.906Z,49.91
2024-03-05T17:55:52.545Z,49.68
2024-03-05T17:58:20.913Z,49.96
2024-03-05T18:00:48.652Z,50.39
2024-03-05T18:03:16.627Z,50.26
2024-03-05T18:05:46.841Z,50.74
2024-03-05T18:08:15.036Z,50.87
2024-03-05T18:10:43.440Z,50.05
2024-03-05T18:13:11.511Z,50.47
2024-03-05T18:15:40.371Z,51.22
2024-03-05T18:18:08.457Z,50.61
2024-03-05T18:20:36.916Z,50.56
2024-03-05T18:23:06.278Z,52.32
2024-03-05T18:25:35.842Z,53.19
2024-03-05T18:28:06.188Z,52.89
2024-03-05T18:30:45.642Z,52.68
2024-03-05T18:33:13.418Z,52.40
2024-03-05T18:35:42.088Z,52.95
2024-03-05T18:38:20.559Z,54.16
2024-03-05T18:40:58.274Z,53.11
2024-03-05T18:43:29.930Z,52.77
2024-03-05T18:46:00.645Z,53.91
2024-03-05T18:48:29.259Z,54.89
2024-03-05T18:50:58.067Z,55.13
2024-03-05T18:53:35.897Z,54.66
2024-03-05T18:56:13.036Z,54.44
2024-03-05T18:58:42.737Z,54.61
2024-03-05T19:01:11.724Z,54.13
2024-03-05T19:03:41.175Z,54.51
2024-03-05T19:06:09.129Z,54.89
2024-03-05T19:08:39.628Z,55.36
2024-03-05T19:11:11.236Z,53.89
2024-03-05T19:13:40.459Z,55.23
2024-03-05T19:16:08.536Z,54.52
2024-03-05T19:18:37.034Z,54.68
2024-03-05T19:21:07.091Z,54.59
2024-03-05T19:23:34.989Z,56.47
2024-03-05T19:26:03.809Z,55.02
2024-03-05T19:28:35.784Z,54.92
2024-03-05T19:31:05.693Z,56.19
2024-03-05T19:33:35.461Z,55.69
2024-03-05T19:36:05.499Z,55.67
2024-03-05T19:38:35.722Z,55.62
2024-03-05T19:41:04.158Z,55.73
2024-03-05T19:43:37.032Z,55.19
2024-03-05T19:46:05.998Z,55.07
2024-03-05T19:48:34.210Z,55.39
2024-03-05T19:51:05.212Z,57.13
2024-03-05T19:53:33.294Z,56.05
2024-03-05T19:56:01.081Z,56.07
2024-03-05T19:58:29.521Z,55.00
2024-03-05T20:00:58.236Z,55.88
2024-03-05T20:03:29.135Z,55.69
2024-03-05T20:05:57.753Z,56.07
2024-03-05T20:08:27.608Z,54.99
2024-03-05T20:10:57.052Z,55.51
2024-03-05T20:13:25.708Z,55.44
2024-03-05T20:15:53.582Z,55.26
2024-03-05T20:18:22.512Z,54.75
2024-03-05T20:20:50.270Z,55.84
2024-03-05T20:23:19.015Z,55.48
2024-03-05T20:25:47.197Z,54.58
2024-03-05T20:28:16.409Z,55.78
2024-03-05T20:30:46.096Z,55.85
2024-03-05T20:33:14.751Z,55.58
2024-03-05T20:35:45.158Z,56.06
2024-03-05T20:38:13.489Z,56.41
2024-03-05T20:40:42.842Z,56.08
2024-03-05T20:43:12.071Z,56.70
2024-03-05T20:45:39.782Z,56.50
2024-03-05T20:48:08.393Z,56.67
2024-03-05T20:50:36.649Z,55.96
2024-03-05T20:53:04.630Z,55.64
2024-03-05T20:55:32.708Z,56.53
2024-03-05T20:58:01.433Z,56.95
2024-03-05T21:00:29.506Z,56.73
2024-03-05T21:02:57.396Z,56.58
2024-03-05T21:05:25.513Z,56.87
2024-03-05T21:07:55.395Z,56.58
2024-03-05T21:10:24.859Z,55.40
2024-03-05T21:12:52.713Z,55.99
2024-03-05T21:15:21.594Z,57.19
2024-03-05T21:17:49.674Z,57.65
2024-03-05T21:20:17.637Z,57.14
2024-03-05T21:22:45.683Z,57.45
2024-03-05T21:25:13.738Z,57.03
2024-03-05T21:27:42.026Z,56.17
2024-03-05T21:30:13.038Z,55.68
2024-03-05T21:32:43.473Z,55.64
2024-03-05T21:35:11.640Z,56.48
2024-03-05T21:37:39.924Z,56.59
2024-03-05T21:40:14.962Z,56.83
2024-03-05T21:42:45.104Z,56.41
2024-03-05T21:45:16.050Z,56.88
2024-03-05T21:47:45.032Z,57.33
2024-03-05T21:50:13.511Z,56.29
2024-03-05T21:52:41.473Z,57.18
2024-03-05T21:55:09.689Z,57.11
2024-03-05T21:57:41.041Z,57.17
2024-03-05T22:00:12.894Z,56.93
2024-03-05T22:02:42.783Z,56.56
2024-03-05T22:05:12.616Z,56.39
2024-03-05T22:07:40.867Z,56.56
2024-03-05T22:10:09.367Z,56.44
2024-03-05T22:12:41.115Z,56.24
2024-03-05T22:15:10.386Z,56.82
2024-03-05T22:17:39.090Z,57.80
2024-03-05T22:20:09.539Z,56.83
2024-03-05T22:22:37.922Z,57.13
2024-03-05T22:25:08.181Z,57.22
2024-03-05T22:27:36.028Z,58.33
2024-03-05T22:30:05.395Z,57.31
2024-03-05T22:32:33.089Z,56.67
2024-03-05T22:35:00.877Z,57.51
2024-03-05T22:37:29.930Z,57.18
2024-03-05T22:39:59.516Z,57.98
2024-03-05T22:42:27.292Z,58.05
2024-03-05T22:44:55.146Z,57.81
2024-03-05T22:47:23.075Z,57.97
2024-03-05T22:49:50.856Z,58.57
2024-03-05T22:52:20.061Z,58.43
2024-03-05T22:54:48.472Z,57.14
2024-03-05T22:57:16.213Z,56.85
2024-03-05T22:59:44.048Z,56.87
2024-03-05T23:02:12.180Z,57.32
2024-03-05T23:04:40.101Z,57.28
2024-03-05T23:07:07.819Z,56.68
2024-03-05T23:09:35.847Z,56.51
2024-03-05T23:12:05.470Z,57.24
2024-03-05T23:14:33.213Z,57.52
2024-03-05T23:17:04.267Z,57.44
2024-03-05T23:19:31.786Z,56.78
2024-03-05T23:22:00.059Z,57.53
2024-03-05T23:24:27.659Z,57.34
2024-03-05T23:26:55.095Z,57.24
2024-03-05T23:29:26.066Z,56.99
2024-03-05T23:31:53.641Z,56.79
2024-03-05T23:34:21.587Z,57.20
2024-03-05T23:36:49.427Z,56.74
2024-03-05T23:39:17.012Z,56.88
2024-03-05T23:41:45.463Z,57.02
2024-03-05T23:44:13.884Z,57.10
2024-03-05T23:46:41.557Z,57.17
2024-03-05T23:49:09.162Z,57.04
2024-03-05T23:51:36.905Z,57.50
2024-03-05T23:54:04.465Z,57.32
2024-03-05T23:56:33.252Z,57.90
2024-03-05T23:59:01.241Z,57.77
